Terminal Aerodrome Forecast
Issued by NWS Twin Cities, MN

Home | Current Version | Previous Version | Graphics & Text | Print | Product List | Glossary On
Versions: 1 2 3 4 5 6 7 8 9 10 11 12 13 14 15 16 17 18 19 20 21
000
FTUS43 KMPX 262000 AAA
TAFSTC
TAF AMD
KSTC 262014Z 2620/2718 36010KT P6SM SCT025 SCT100
     FM270100 33007KT P6SM SCT050
     FM270400 33004KT P6SM SKC
     FM271600 VRB02KT P6SM SCT200=

USA.gov is the U.S. government's official web portal to all federal, state and local government web resources and services.